Huvudsida
METAR-TAF:

METAR-TAF

Flygplatser :

Lüderitz, Namibia

latitud: 26-41S, longitud: 015-15E, höjd: 130 m

Aktuellt väderrapport

Denna rapport gjordes för 1 timme och 12 minuter sedan, klockan 08:00 UTC
Temperatur 17°C
Fuktighet 63%
Tryck 1023 hPa

METAR: FYLZ 250800Z AUTO /////KT //// // ////// 17/10 Q1023

Tid: 11:12 (09:12 UTC)

Väderprognos

Denna rapport gjordes för 16 timmar och 12 minuter sedan, klockan 17:00 UTC
Prognos gäller från 24 kl. 18 UTC till 25 kl. 03 UTC
Vind 14 kt från syd/sydost
Sikt 10 km eller mer
Inga moln under 1 500 m eller inga cumulonimbus

TAF: FYLZ 241700Z 2418/2503 16014KT CAVOK

Aktuella väderrapporter och prognoser från 4000 flygplatser (METAR- och TAF-rapporter).

De tillgängliga stationerna syns som gula och röda prickar på kartan.

För musen över prickarna för att se namnen på stationerna.

Klicka sedan för att få väderrapporter och prognoser.

För att ändra kartan: Klicka på de gröna knapparna med ett svart kors på för att zooma in; den gröna knappen med ett streck på för att zooma ut; eller på de gröna pilarna för angränsande kartor.


METAR-TAF: